Time;durP1;ratioP1;P1;durP2;ratioP2;P2;SDS_P1;SDS_P2;PMS_P1;PMS_P2;Temp;Humidity;BMP_temperature;BMP_pressure;BME280_temperature;BME280_humidity;BME280_pressure;Samples;Min_cycle;Max_cycle;Signal;HPM_P1;HPM_P2
2022/07/10 00:00:27;;;;;;;6.30;4.37;;;13.60;99.90;;;;;;4873715;29;20993;-61
2022/07/10 00:02:59;;;;;;;9.23;4.37;;;13.50;99.90;;;;;;4876608;29;20207;-61
2022/07/10 00:05:28;;;;;;;7.27;4.03;;;13.40;99.90;;;;;;4871629;29;20214;-61
2022/07/10 00:07:56;;;;;;;9.27;3.97;;;13.40;99.90;;;;;;4870683;29;20195;-60
2022/07/10 00:10:25;;;;;;;13.63;4.70;;;13.40;99.90;;;;;;4874910;29;20197;-61
2022/07/10 00:12:53;;;;;;;11.60;4.43;;;13.40;99.90;;;;;;4875735;29;20210;-61
2022/07/10 00:15:22;;;;;;;15.43;4.97;;;13.40;99.90;;;;;;4872645;29;20207;-61
2022/07/10 00:17:52;;;;;;;7.83;4.60;;;13.30;99.90;;;;;;4872107;29;20302;-63
2022/07/10 00:20:23;;;;;;;10.30;4.87;;;13.30;99.90;;;;;;4865617;29;20215;-63
2022/07/10 00:22:52;;;;;;;7.83;4.27;;;13.30;99.90;;;;;;4870546;29;20317;-63
2022/07/10 00:25:28;;;;;;;5.17;4.23;;;13.30;99.90;;;;;;4874189;29;20661;-63
2022/07/10 00:27:56;;;;;;;9.33;4.47;;;13.30;99.90;;;;;;4875070;29;20670;-63
2022/07/10 00:30:25;;;;;;;13.17;4.83;;;13.30;99.90;;;;;;4873265;29;20191;-63
2022/07/10 00:32:53;;;;;;;5.27;4.60;;;13.20;99.90;;;;;;4873743;29;20225;-63
2022/07/10 00:35:23;;;;;;;9.20;4.50;;;13.20;99.90;;;;;;4872532;29;20206;-63
2022/07/10 00:37:51;;;;;;;7.60;4.57;;;13.20;99.90;;;;;;4876571;29;20215;-63
2022/07/10 00:40:20;;;;;;;6.93;4.40;;;13.20;99.90;;;;;;4873564;29;20226;-63
2022/07/10 00:42:48;;;;;;;8.27;4.43;;;13.20;99.90;;;;;;4875063;29;20290;-63
2022/07/10 00:45:16;;;;;;;8.10;4.07;;;13.20;99.90;;;;;;4873760;29;20191;-62
2022/07/10 00:47:45;;;;;;;6.50;4.43;;;13.10;99.90;;;;;;4873925;29;20284;-62
2022/07/10 00:50:13;;;;;;;8.50;5.00;;;13.10;99.90;;;;;;4870652;29;20229;-63
2022/07/10 00:52:43;;;;;;;9.17;4.90;;;13.10;99.90;;;;;;4873482;29;20297;-63
2022/07/10 00:55:12;;;;;;;6.60;4.77;;;13.00;99.90;;;;;;4874075;29;20657;-63
2022/07/10 00:57:41;;;;;;;9.27;4.37;;;13.00;99.90;;;;;;4872755;29;20286;-63
2022/07/10 01:00:11;;;;;;;7.00;4.80;;;13.00;99.90;;;;;;4874490;29;20209;-62
2022/07/10 01:02:43;;;;;;;4.90;4.50;;;12.90;99.90;;;;;;4871091;29;20301;-62
2022/07/10 01:05:12;;;;;;;7.80;5.10;;;12.90;99.90;;;;;;4873198;29;20210;-63
2022/07/10 01:07:40;;;;;;;8.20;4.70;;;12.90;99.90;;;;;;4873717;29;20282;-63
2022/07/10 01:10:11;;;;;;;9.67;4.93;;;12.90;99.90;;;;;;4872674;29;20293;-63
2022/07/10 01:12:40;;;;;;;7.50;4.70;;;12.90;99.90;;;;;;4872817;29;20278;-63
2022/07/10 01:15:09;;;;;;;9.90;4.97;;;12.90;99.90;;;;;;4872880;29;20251;-62
2022/07/10 01:17:38;;;;;;;9.33;5.10;;;12.80;99.90;;;;;;4872747;29;20211;-62
2022/07/10 01:20:07;;;;;;;7.23;4.63;;;12.80;99.90;;;;;;4872805;29;20202;-62
2022/07/10 01:22:38;;;;;;;10.30;5.30;;;12.80;99.90;;;;;;4873387;29;20754;-62
2022/07/10 01:25:07;;;;;;;8.63;4.87;;;12.70;99.90;;;;;;4872972;29;20199;-63
2022/07/10 01:27:35;;;;;;;7.83;4.90;;;12.70;99.90;;;;;;4874296;29;20226;-62
2022/07/10 01:30:05;;;;;;;9.57;5.23;;;12.70;99.90;;;;;;4870887;29;22309;-62
2022/07/10 01:32:40;;;;;;;8.17;4.67;;;12.70;99.90;;;;;;4872270;29;20202;-63
2022/07/10 01:35:09;;;;;;;10.60;4.83;;;12.80;99.90;;;;;;4870196;29;20211;-63
2022/07/10 01:37:40;;;;;;;10.27;5.00;;;12.80;99.90;;;;;;4870304;29;20705;-63
2022/07/10 01:40:09;;;;;;;4.87;4.37;;;12.70;99.90;;;;;;4869142;29;20199;-63
2022/07/10 01:42:38;;;;;;;6.03;4.77;;;12.70;99.90;;;;;;4872640;29;20815;-62
2022/07/10 01:45:08;;;;;;;9.30;4.43;;;12.70;99.90;;;;;;4871997;29;20205;-63
2022/07/10 01:47:37;;;;;;;8.07;4.40;;;12.60;99.90;;;;;;4867927;29;20234;-63
2022/07/10 01:50:06;;;;;;;8.63;4.37;;;12.60;99.90;;;;;;4874095;29;20624;-63
2022/07/10 01:52:35;;;;;;;5.30;4.03;;;12.50;99.90;;;;;;4873946;29;20206;-63
2022/07/10 01:55:05;;;;;;;4.70;4.23;;;12.50;99.90;;;;;;4873896;29;20326;-63
2022/07/10 01:57:33;;;;;;;7.70;4.33;;;12.40;99.90;;;;;;4872981;29;20301;-63
2022/07/10 02:00:02;;;;;;;5.87;4.30;;;12.40;99.90;;;;;;4873646;29;20230;-63
2022/07/10 02:02:30;;;;;;;8.97;4.23;;;12.40;99.90;;;;;;4870561;29;20246;-63
2022/07/10 02:04:57;;;;;;;6.37;4.40;;;12.30;99.90;;;;;;4870534;29;20206;-63
2022/07/10 02:07:26;;;;;;;11.43;4.33;;;12.30;99.90;;;;;;4871580;29;20233;-63
2022/07/10 02:09:54;;;;;;;9.17;5.00;;;12.20;99.90;;;;;;4873526;29;20199;-63
2022/07/10 02:12:24;;;;;;;4.73;4.33;;;12.20;99.90;;;;;;4866986;29;20264;-63
2022/07/10 02:14:53;;;;;;;6.67;4.90;;;12.20;99.90;;;;;;4876031;29;20844;-63
2022/07/10 02:17:22;;;;;;;7.13;4.73;;;12.20;99.90;;;;;;4885009;29;20206;-63
2022/07/10 02:19:50;;;;;;;7.90;4.50;;;12.20;99.90;;;;;;4871888;29;20203;-62
2022/07/10 02:22:19;;;;;;;6.43;4.60;;;12.20;99.90;;;;;;4871586;29;20424;-63
2022/07/10 02:24:47;;;;;;;5.87;4.50;;;12.20;99.90;;;;;;4868580;29;20210;-63
2022/07/10 02:27:16;;;;;;;6.00;4.60;;;12.20;99.90;;;;;;4873348;29;20209;-63
2022/07/10 02:29:45;;;;;;;4.90;4.40;;;12.10;99.90;;;;;;4867529;29;20191;-63
2022/07/10 02:32:14;;;;;;;5.17;4.27;;;12.10;99.90;;;;;;4869865;29;20217;-63
2022/07/10 02:34:42;;;;;;;9.20;4.20;;;12.00;99.90;;;;;;4870022;29;20225;-63
2022/07/10 02:37:10;;;;;;;6.70;4.40;;;11.90;99.90;;;;;;4873629;29;20659;-63
2022/07/10 02:39:38;;;;;;;4.97;4.03;;;11.90;99.90;;;;;;4871153;29;20745;-63
2022/07/10 02:42:07;;;;;;;8.37;4.70;;;11.90;99.90;;;;;;4874401;29;20199;-62
2022/07/10 02:44:36;;;;;;;4.80;4.30;;;11.80;99.90;;;;;;4869968;29;20194;-63
2022/07/10 02:47:05;;;;;;;6.07;4.73;;;11.80;99.90;;;;;;4869522;29;20290;-63
2022/07/10 02:49:34;;;;;;;8.40;4.80;;;11.80;99.90;;;;;;4869855;29;20203;-63
2022/07/10 02:52:02;;;;;;;6.73;4.73;;;11.80;99.90;;;;;;4871606;29;20217;-63
2022/07/10 02:54:31;;;;;;;5.43;4.53;;;11.70;99.90;;;;;;4868376;29;20341;-62
2022/07/10 02:56:59;;;;;;;9.03;4.57;;;11.70;99.90;;;;;;4870086;29;20206;-63
2022/07/10 02:59:27;;;;;;;4.87;4.43;;;11.70;99.90;;;;;;4870855;29;20206;-63
2022/07/10 03:01:56;;;;;;;4.67;4.00;;;11.70;99.90;;;;;;4869969;29;20327;-63
2022/07/10 03:04:26;;;;;;;4.87;4.47;;;11.70;99.90;;;;;;4869908;29;20202;-63
2022/07/10 03:06:54;;;;;;;5.40;4.40;;;11.70;99.90;;;;;;4871403;29;20781;-62
2022/07/10 03:09:23;;;;;;;9.00;5.00;;;11.70;99.90;;;;;;4872703;29;20211;-63
2022/07/10 03:11:51;;;;;;;7.60;4.83;;;11.60;99.90;;;;;;4865892;29;20241;-63
2022/07/10 03:14:19;;;;;;;5.77;4.90;;;11.60;99.90;;;;;;4869587;29;20293;-63
2022/07/10 03:16:47;;;;;;;5.57;4.73;;;11.70;99.90;;;;;;4875178;29;20566;-63
2022/07/10 03:19:16;;;;;;;5.00;4.60;;;11.60;99.90;;;;;;4874926;29;20242;-63
2022/07/10 03:21:46;;;;;;;5.53;4.90;;;11.70;99.90;;;;;;4876705;29;20230;-63
2022/07/10 03:24:14;;;;;;;9.77;5.27;;;11.60;99.90;;;;;;4874342;29;20289;-63
2022/07/10 03:26:43;;;;;;;9.00;4.90;;;11.60;99.90;;;;;;4876384;29;20310;-62
2022/07/10 03:29:12;;;;;;;6.53;4.43;;;11.60;99.90;;;;;;4874175;29;20704;-62
2022/07/10 03:31:40;;;;;;;9.57;4.47;;;11.60;99.90;;;;;;4874767;29;20250;-63
2022/07/10 03:34:09;;;;;;;7.80;4.20;;;11.60;99.90;;;;;;4873320;29;20203;-63
2022/07/10 03:36:39;;;;;;;6.33;4.43;;;11.50;99.90;;;;;;4873841;29;20290;-63
2022/07/10 03:39:09;;;;;;;4.80;4.30;;;11.40;99.90;;;;;;4876325;29;20282;-63
2022/07/10 03:41:37;;;;;;;4.87;4.47;;;11.40;99.90;;;;;;4875247;29;20728;-63
2022/07/10 03:44:06;;;;;;;7.33;4.27;;;11.40;99.90;;;;;;4875469;29;20203;-63
2022/07/10 03:46:34;;;;;;;4.90;4.40;;;11.40;99.90;;;;;;4871361;29;20286;-62
2022/07/10 03:49:03;;;;;;;9.10;5.10;;;11.40;99.90;;;;;;4876083;29;20275;-62
2022/07/10 03:51:32;;;;;;;10.50;5.07;;;11.40;99.90;;;;;;4873839;29;20211;-62
2022/07/10 03:54:00;;;;;;;7.33;4.63;;;11.50;99.90;;;;;;4873192;29;20777;-63
2022/07/10 03:59:15;;;;;;;7.27;4.97;;;11.50;99.90;;;;;;4871037;29;20209;-63
2022/07/10 04:01:43;;;;;;;7.13;5.03;;;11.50;99.90;;;;;;4874159;29;20215;-61
2022/07/10 04:04:28;;;;;;;5.37;4.67;;;11.50;99.90;;;;;;4887097;29;20198;-62
2022/07/10 04:06:57;;;;;;;6.50;4.73;;;11.50;99.90;;;;;;4871592;29;20206;-62
2022/07/10 04:09:25;;;;;;;9.57;5.47;;;11.50;99.90;;;;;;4875635;29;20209;-62
2022/07/10 04:11:55;;;;;;;5.80;4.40;;;11.50;99.90;;;;;;4874157;29;20293;-62
2022/07/10 04:14:23;;;;;;;4.70;4.30;;;11.50;99.90;;;;;;4873359;29;20283;-62
2022/07/10 04:16:52;;;;;;;4.87;4.43;;;11.50;99.90;;;;;;4869150;29;22269;-62
2022/07/10 04:19:21;;;;;;;5.50;4.70;;;11.60;99.90;;;;;;4874830;29;20552;-62
2022/07/10 04:21:49;;;;;;;5.33;4.70;;;11.50;99.90;;;;;;4872601;29;20655;-62
2022/07/10 04:24:18;;;;;;;11.70;4.93;;;11.60;99.90;;;;;;4874761;29;20211;-62
2022/07/10 04:26:46;;;;;;;6.23;4.70;;;11.60;99.90;;;;;;4873470;29;20682;-62
2022/07/10 04:29:16;;;;;;;6.30;4.67;;;11.60;99.90;;;;;;4874184;29;20570;-62
2022/07/10 04:31:44;;;;;;;7.07;4.57;;;11.70;99.90;;;;;;4876037;29;20682;-62
2022/07/10 04:34:13;;;;;;;8.03;4.37;;;11.80;99.90;;;;;;4872642;29;20211;-62
2022/07/10 04:36:41;;;;;;;4.90;4.53;;;11.80;99.90;;;;;;4872972;29;20225;-62
2022/07/10 04:39:10;;;;;;;7.00;5.10;;;11.90;99.90;;;;;;4874852;29;20199;-62
2022/07/10 04:41:38;;;;;;;8.77;4.80;;;12.00;99.90;;;;;;4873630;29;20202;-62
2022/07/10 04:44:07;;;;;;;6.67;5.30;;;12.10;99.90;;;;;;4873536;29;20199;-62
2022/07/10 04:46:36;;;;;;;6.27;4.80;;;12.20;99.90;;;;;;4874072;29;20210;-62
2022/07/10 04:49:05;;;;;;;5.93;5.00;;;12.40;99.90;;;;;;4874660;29;20202;-62
2022/07/10 04:51:33;;;;;;;10.30;4.80;;;12.50;99.90;;;;;;4872975;29;20664;-62
2022/07/10 04:54:01;;;;;;;5.27;4.60;;;12.60;99.90;;;;;;4879937;29;20205;-63
2022/07/10 04:56:29;;;;;;;8.53;4.63;;;12.80;99.90;;;;;;4871943;29;20242;-62
2022/07/10 04:58:58;;;;;;;6.70;4.60;;;12.90;99.90;;;;;;4873401;29;20552;-62
2022/07/10 05:01:26;;;;;;;7.20;5.20;;;13.10;99.90;;;;;;4874319;29;20211;-62
2022/07/10 05:03:56;;;;;;;5.07;4.57;;;13.20;99.90;;;;;;4872158;29;20278;-62
2022/07/10 05:06:25;;;;;;;9.17;5.33;;;13.40;99.90;;;;;;4856603;29;20191;-63
2022/07/10 05:08:54;;;;;;;8.17;5.03;;;13.50;99.90;;;;;;4871938;29;21105;-62
2022/07/10 05:11:23;;;;;;;9.10;4.83;;;13.70;99.90;;;;;;4872576;29;20678;-62
2022/07/10 05:13:52;;;;;;;6.13;4.97;;;13.80;99.90;;;;;;4873955;29;20203;-63
2022/07/10 05:16:20;;;;;;;6.33;4.80;;;13.90;99.90;;;;;;4871736;29;20314;-62
2022/07/10 05:18:48;;;;;;;7.93;5.00;;;14.10;99.90;;;;;;4871612;29;20284;-62
2022/07/10 05:21:18;;;;;;;8.60;4.97;;;14.20;99.90;;;;;;4873157;29;20298;-62
2022/07/10 05:23:47;;;;;;;9.07;4.90;;;14.40;99.90;;;;;;4871078;29;20298;-62
2022/07/10 05:26:15;;;;;;;8.83;4.70;;;14.50;99.90;;;;;;4873515;29;20226;-63
2022/07/10 05:28:44;;;;;;;6.90;4.13;;;14.70;99.90;;;;;;4874504;29;20207;-62
2022/07/10 05:31:12;;;;;;;5.90;4.03;;;14.90;99.90;;;;;;4872024;29;20205;-63
2022/07/10 05:33:40;;;;;;;7.90;4.20;;;15.00;99.90;;;;;;4871055;29;20743;-63
2022/07/10 05:36:09;;;;;;;5.63;4.30;;;15.20;99.90;;;;;;4874350;29;20877;-62
2022/07/10 05:38:39;;;;;;;5.83;4.37;;;15.20;99.90;;;;;;4872739;29;20298;-63
2022/07/10 05:41:09;;;;;;;6.87;4.40;;;15.40;99.90;;;;;;4873381;29;20211;-63
2022/07/10 05:43:37;;;;;;;8.63;4.73;;;15.60;99.90;;;;;;4870949;29;20211;-63
2022/07/10 05:46:05;;;;;;;8.13;3.90;;;15.70;99.90;;;;;;4873384;29;20191;-63
2022/07/10 05:48:34;;;;;;;5.00;4.17;;;15.90;99.90;;;;;;4873099;29;20194;-63
2022/07/10 05:51:03;;;;;;;7.23;4.07;;;16.20;99.90;;;;;;4869660;29;20215;-63
2022/07/10 05:53:52;;;;;;;6.20;3.80;;;16.30;99.90;;;;;;4873312;29;20203;-63
2022/07/10 05:56:21;;;;;;;5.27;3.90;;;16.60;99.90;;;;;;4872786;29;20217;-63
2022/07/10 05:58:49;;;;;;;7.30;3.67;;;16.70;99.90;;;;;;4872134;29;20226;-63
2022/07/10 06:01:18;;;;;;;6.57;3.30;;;16.90;99.90;;;;;;4872139;29;20373;-63
2022/07/10 06:03:46;;;;;;;7.33;3.60;;;17.10;99.90;;;;;;4872010;29;20293;-63
2022/07/10 06:06:15;;;;;;;5.73;3.33;;;17.30;99.90;;;;;;4872133;29;20206;-63
2022/07/10 06:08:44;;;;;;;5.30;2.90;;;17.40;99.90;;;;;;4873828;29;20263;-63
2022/07/10 06:11:15;;;;;;;10.33;3.10;;;17.50;99.90;;;;;;4870292;29;20199;-63
2022/07/10 06:13:44;;;;;;;4.33;2.57;;;17.70;99.90;;;;;;4875179;29;20230;-63
2022/07/10 06:16:12;;;;;;;4.67;2.47;;;17.70;99.90;;;;;;4867094;29;20214;-63
2022/07/10 06:18:41;;;;;;;3.97;2.30;;;18.00;99.90;;;;;;4888071;29;20202;-63
2022/07/10 06:21:11;;;;;;;5.97;2.70;;;18.30;99.90;;;;;;4870359;29;20732;-63
2022/07/10 06:23:39;;;;;;;6.27;2.60;;;18.50;99.90;;;;;;4866082;29;20218;-63
2022/07/10 06:26:07;;;;;;;6.27;2.57;;;18.70;99.90;;;;;;4874384;29;20293;-63
2022/07/10 06:28:37;;;;;;;4.77;2.27;;;19.00;99.90;;;;;;4873606;29;20319;-64
2022/07/10 06:31:05;;;;;;;2.30;2.10;;;19.30;99.90;;;;;;4871972;29;20592;-63
2022/07/10 06:33:35;;;;;;;2.57;1.80;;;19.40;99.90;;;;;;4870142;29;20282;-63
2022/07/10 06:36:04;;;;;;;2.77;1.53;;;19.60;99.90;;;;;;4875299;29;20223;-64
2022/07/10 06:38:32;;;;;;;4.93;2.00;;;19.70;99.90;;;;;;4871777;29;20200;-64
2022/07/10 06:41:01;;;;;;;4.50;1.70;;;19.90;99.90;;;;;;4872019;29;20299;-64
2022/07/10 06:43:29;;;;;;;4.23;1.80;;;20.10;99.90;;;;;;4874123;29;20288;-64
2022/07/10 06:45:59;;;;;;;3.40;1.67;;;20.40;99.90;;;;;;4867257;29;20847;-63
2022/07/10 06:48:27;;;;;;;3.57;1.70;;;20.70;99.90;;;;;;4869037;29;20214;-64
2022/07/10 06:50:56;;;;;;;6.17;1.80;;;20.60;99.90;;;;;;4871132;29;20280;-64
2022/07/10 06:53:26;;;;;;;2.00;1.80;;;20.70;99.90;;;;;;4872469;29;20729;-64
2022/07/10 06:55:55;;;;;;;3.97;1.93;;;20.50;99.90;;;;;;4872401;29;20267;-63
2022/07/10 06:58:24;;;;;;;3.27;1.60;;;20.30;99.90;;;;;;4873033;29;20307;-63
2022/07/10 07:00:52;;;;;;;4.10;1.80;;;20.10;99.90;;;;;;4873609;29;20224;-63
2022/07/10 07:03:22;;;;;;;4.20;1.43;;;20.10;99.90;;;;;;4869281;29;20209;-63
2022/07/10 07:05:50;;;;;;;4.60;1.40;;;20.10;99.90;;;;;;4868983;29;20212;-63
2022/07/10 07:08:18;;;;;;;2.37;1.70;;;20.10;99.90;;;;;;4869983;29;20203;-63
2022/07/10 07:10:47;;;;;;;3.00;1.67;;;20.00;99.90;;;;;;4871848;29;20288;-63
2022/07/10 07:13:15;;;;;;;2.97;1.60;;;20.10;99.90;;;;;;4875196;29;20725;-63
2022/07/10 07:15:50;;;;;;;3.20;1.40;;;20.30;99.90;;;;;;4871144;29;20193;-63
2022/07/10 07:18:21;;;;;;;4.37;1.50;;;20.30;99.90;;;;;;4873035;29;20224;-63
2022/07/10 07:23:36;;;;;;;4.83;1.63;;;20.30;99.90;;;;;;4872949;29;20203;-63
2022/07/10 07:26:04;;;;;;;4.53;1.83;;;20.10;99.90;;;;;;4870636;29;20572;-63
2022/07/10 07:28:33;;;;;;;3.23;1.90;;;20.10;99.90;;;;;;4869052;29;20192;-63
2022/07/10 07:31:01;;;;;;;4.10;2.10;;;20.10;99.90;;;;;;4871600;29;20217;-63
2022/07/10 07:33:30;;;;;;;1.77;1.50;;;19.90;99.90;;;;;;4867413;29;20209;-63
2022/07/10 07:35:59;;;;;;;3.40;1.97;;;20.00;99.90;;;;;;4869421;29;20215;-63
2022/07/10 07:38:28;;;;;;;2.90;1.77;;;20.30;99.90;;;;;;4873683;29;20219;-63
2022/07/10 07:40:56;;;;;;;3.63;1.60;;;20.60;99.90;;;;;;4887281;29;20217;-63
2022/07/10 07:43:24;;;;;;;2.90;1.80;;;21.30;99.90;;;;;;4864748;29;20197;-64
2022/07/10 07:45:53;;;;;;;3.93;2.10;;;22.40;99.90;;;;;;4878388;29;20210;-64
2022/07/10 07:48:21;;;;;;;5.93;1.80;;;23.20;99.90;;;;;;4871902;29;20226;-64
2022/07/10 07:50:50;;;;;;;4.10;1.70;;;23.90;99.90;;;;;;4870887;29;20562;-64
2022/07/10 07:53:19;;;;;;;2.15;1.52;;;24.20;99.90;;;;;;4875408;29;20237;-64
2022/07/10 07:55:48;;;;;;;2.17;1.52;;;24.30;99.90;;;;;;4872934;29;20219;-64
2022/07/10 07:58:16;;;;;;;3.13;1.60;;;24.50;99.90;;;;;;4873501;29;20309;-65
2022/07/10 08:00:44;;;;;;;1.27;1.17;;;24.70;99.90;;;;;;4873002;29;20875;-64
2022/07/10 08:03:12;;;;;;;1.50;1.40;;;25.20;99.90;;;;;;4870148;29;20207;-64
2022/07/10 08:05:41;;;;;;;4.40;1.42;;;25.50;99.90;;;;;;4867804;29;20613;-64
2022/07/10 08:08:09;;;;;;;1.80;1.17;;;25.70;99.90;;;;;;4868496;29;20195;-64
2022/07/10 08:10:39;;;;;;;3.58;1.70;;;26.10;99.90;;;;;;4875742;29;20204;-65
2022/07/10 08:13:12;;;;;;;3.80;1.35;;;26.50;99.90;;;;;;4860043;29;20234;-64
2022/07/10 08:15:41;;;;;;;1.30;1.30;;;27.00;99.90;;;;;;4875480;29;20290;-64
2022/07/10 08:18:09;;;;;;;1.33;1.20;;;27.00;99.90;;;;;;4873187;29;20217;-64
2022/07/10 08:20:37;;;;;;;5.30;1.50;;;27.50;99.90;;;;;;4875326;29;20607;-64
2022/07/10 08:23:06;;;;;;;2.78;1.30;;;27.60;99.90;;;;;;4876027;29;20246;-64
2022/07/10 08:25:35;;;;;;;4.80;1.73;;;27.70;99.90;;;;;;4876710;29;20759;-64
2022/07/10 08:28:06;;;;;;;2.13;1.40;;;28.20;99.90;;;;;;4874556;29;20263;-64
2022/07/10 08:30:34;;;;;;;3.78;1.48;;;28.10;99.90;;;;;;4875163;29;20198;-64
2022/07/10 08:33:03;;;;;;;2.78;1.58;;;27.60;99.90;;;;;;4874179;29;20622;-64
2022/07/10 08:35:35;;;;;;;3.75;1.60;;;27.00;99.90;;;;;;4874847;29;20203;-64
2022/07/10 08:38:05;;;;;;;3.42;1.58;;;25.90;99.90;;;;;;4873823;29;20238;-64
2022/07/10 08:40:37;;;;;;;2.03;1.50;;;25.10;99.90;;;;;;4872206;29;20195;-64
2022/07/10 08:43:07;;;;;;;3.67;1.60;;;24.70;99.90;;;;;;4874474;29;20216;-64
2022/07/10 08:45:35;;;;;;;2.20;1.33;;;24.30;99.90;;;;;;4875333;29;20291;-64
2022/07/10 08:48:07;;;;;;;1.73;1.60;;;23.90;99.90;;;;;;4876041;29;20687;-64
2022/07/10 08:50:45;;;;;;;3.03;1.50;;;23.80;99.90;;;;;;4875193;29;20217;-63
2022/07/10 08:53:18;;;;;;;1.90;1.80;;;23.70;99.90;;;;;;4884856;29;20672;-63
2022/07/10 08:55:47;;;;;;;4.18;1.67;;;23.80;99.90;;;;;;4873549;29;20262;-64
2022/07/10 08:58:18;;;;;;;2.20;1.53;;;23.90;99.90;;;;;;4875294;29;20301;-63
2022/07/10 09:00:47;;;;;;;1.77;1.50;;;23.80;99.90;;;;;;4876255;29;20294;-63
2022/07/10 09:03:17;;;;;;;5.20;1.73;;;23.80;99.90;;;;;;4871819;29;20207;-63
2022/07/10 09:05:46;;;;;;;2.37;1.63;;;23.70;99.90;;;;;;4874523;29;20199;-63
2022/07/10 09:08:27;;;;;;;1.70;1.33;;;23.70;99.90;;;;;;4874882;29;20295;-63
2022/07/10 09:11:14;;;;;;;3.83;1.47;;;23.70;99.90;;;;;;4872770;29;20210;-63
2022/07/10 09:13:54;;;;;;;2.73;1.50;;;23.60;99.90;;;;;;4870234;29;20740;-63
2022/07/10 09:16:24;;;;;;;1.73;1.60;;;23.90;99.90;;;;;;4873502;29;20710;-63
2022/07/10 09:18:53;;;;;;;5.10;1.57;;;24.10;99.90;;;;;;4848697;29;20756;-63
2022/07/10 09:21:22;;;;;;;1.70;1.60;;;24.20;99.90;;;;;;4872499;29;20199;-63
2022/07/10 09:24:05;;;;;;;2.03;1.83;;;24.30;99.90;;;;;;4874368;29;20288;-63
2022/07/10 09:26:34;;;;;;;2.57;1.73;;;24.50;99.90;;;;;;4861343;29;20194;-64
2022/07/10 09:29:11;;;;;;;1.80;1.70;;;24.60;99.90;;;;;;4868213;29;20739;-63
2022/07/10 09:31:53;;;;;;;2.30;1.80;;;24.60;99.90;;;;;;4871515;29;20195;-63
2022/07/10 09:34:42;;;;;;;1.87;1.67;;;24.90;99.90;;;;;;4874878;29;20722;-64
2022/07/10 09:37:21;;;;;;;2.10;1.77;;;25.50;99.90;;;;;;4864987;29;20710;-64
2022/07/10 09:39:54;;;;;;;2.72;2.08;;;25.90;99.90;;;;;;4871375;29;20228;-64
2022/07/10 09:42:29;;;;;;;2.00;1.83;;;25.60;99.90;;;;;;4871840;29;20196;-64
2022/07/10 09:45:19;;;;;;;3.20;1.67;;;25.30;99.90;;;;;;4866591;29;20591;-64
2022/07/10 09:47:58;;;;;;;1.65;1.50;;;25.80;99.90;;;;;;4882748;29;20225;-64
2022/07/10 09:50:29;;;;;;;2.42;1.73;;;25.80;99.90;;;;;;4869427;29;20553;-64
2022/07/10 09:52:59;;;;;;;2.63;1.60;;;25.70;99.90;;;;;;4867736;29;20200;-63
2022/07/10 09:55:29;;;;;;;1.75;1.63;;;25.50;99.90;;;;;;4871301;29;20205;-64
2022/07/10 09:57:59;;;;;;;5.88;1.40;;;25.50;99.90;;;;;;4871753;29;20843;-64
2022/07/10 10:00:31;;;;;;;2.47;1.92;;;25.40;99.90;;;;;;4868497;29;20211;-64
2022/07/10 10:03:12;;;;;;;3.33;1.80;;;25.00;99.90;;;;;;4868219;29;20662;-64
2022/07/10 10:05:44;;;;;;;5.25;1.70;;;25.30;99.90;;;;;;4869435;29;20222;-64
2022/07/10 10:08:15;;;;;;;1.90;1.63;;;25.80;99.90;;;;;;4867485;29;20738;-64
2022/07/10 10:10:49;;;;;;;2.05;1.80;;;26.20;99.90;;;;;;4869158;29;20205;-64
2022/07/10 10:13:19;;;;;;;1.60;1.50;;;26.50;99.90;;;;;;4873031;29;20204;-64
2022/07/10 10:15:51;;;;;;;2.67;1.80;;;26.60;99.90;;;;;;4866617;29;20223;-64
2022/07/10 10:18:21;;;;;;;2.78;1.80;;;26.70;99.90;;;;;;4868268;29;20231;-64
2022/07/10 10:20:50;;;;;;;1.38;1.30;;;27.00;99.90;;;;;;4871415;29;20541;-64
2022/07/10 10:23:21;;;;;;;3.03;1.30;;;27.00;99.90;;;;;;4872298;29;20266;-64
2022/07/10 10:25:50;;;;;;;4.88;1.55;;;27.20;99.90;;;;;;4873011;29;20214;-64
2022/07/10 10:28:23;;;;;;;1.40;1.30;;;27.40;99.90;;;;;;4868186;29;20309;-64
2022/07/10 10:30:54;;;;;;;1.35;1.23;;;27.50;99.90;;;;;;4871146;29;20250;-64
2022/07/10 10:33:44;;;;;;;3.92;1.85;;;27.80;99.90;;;;;;4867651;29;20285;-64
2022/07/10 10:36:13;;;;;;;2.63;1.58;;;27.90;99.90;;;;;;4870787;29;20199;-64
2022/07/10 10:39:12;;;;;;;2.65;1.70;;;27.70;99.90;;;;;;4865739;29;20246;-64
2022/07/10 10:41:43;;;;;;;1.77;1.30;;;28.00;99.90;;;;;;4850914;29;20774;-64
2022/07/10 10:44:35;;;;;;;2.42;1.30;;;28.80;99.90;;;;;;4867736;29;20703;-64
2022/07/10 10:47:06;;;;;;;2.53;1.48;;;29.20;99.90;;;;;;4870924;29;20211;-64
2022/07/10 10:50:01;;;;;;;1.63;1.52;;;29.90;99.90;;;;;;4868794;29;20208;-64
2022/07/10 10:52:30;;;;;;;1.58;1.52;;;29.50;99.90;;;;;;4874386;29;20741;-64
2022/07/10 10:55:07;;;;;;;5.43;1.55;;;29.60;99.90;;;;;;4872889;29;20760;-64
2022/07/10 10:57:51;;;;;;;2.40;1.35;;;29.80;99.90;;;;;;4865471;29;20217;-64
2022/07/10 11:00:37;;;;;;;1.42;1.33;;;30.10;99.90;;;;;;4870412;29;20214;-64
2022/07/10 11:03:21;;;;;;;1.50;1.40;;;30.20;99.90;;;;;;4867470;29;20679;-64
2022/07/10 11:05:50;;;;;;;1.58;1.48;;;30.00;99.90;;;;;;4872594;29;20294;-64
2022/07/10 11:08:43;;;;;;;3.15;1.35;;;29.50;99.90;;;;;;4871894;29;20286;-64
2022/07/10 11:11:43;;;;;;;2.05;1.60;;;29.40;99.90;;;;;;4868871;29;20323;-63
2022/07/10 11:14:12;;;;;;;1.40;1.30;;;29.10;99.90;;;;;;4871527;29;20274;-63
2022/07/10 11:16:50;;;;;;;1.40;1.30;;;28.80;99.90;;;;;;4864643;29;20191;-63
2022/07/10 11:19:27;;;;;;;1.52;1.42;;;28.70;99.90;;;;;;4870455;29;20218;-63
2022/07/10 11:22:41;;;;;;;1.73;1.50;;;28.30;99.90;;;;;;4872865;29;20236;-63
2022/07/10 11:25:30;;;;;;;1.98;1.63;;;28.10;99.90;;;;;;4872845;29;20278;-63
2022/07/10 11:28:09;;;;;;;2.05;1.60;;;28.00;99.90;;;;;;4866988;29;20348;-64
2022/07/10 11:30:48;;;;;;;1.65;1.55;;;27.90;99.90;;;;;;4880206;29;20201;-63
2022/07/10 11:33:17;;;;;;;2.03;1.63;;;27.70;99.90;;;;;;4868212;29;20201;-63
2022/07/10 11:35:51;;;;;;;2.40;1.48;;;27.60;99.90;;;;;;4873067;29;20289;-63
2022/07/10 11:38:24;;;;;;;1.90;1.48;;;27.70;99.90;;;;;;4878026;29;20630;-63
2022/07/10 11:40:54;;;;;;;4.80;1.73;;;27.50;99.90;;;;;;4874845;29;20267;-63
2022/07/10 11:43:23;;;;;;;1.67;1.50;;;27.40;99.90;;;;;;4875661;29;20211;-63
2022/07/10 11:45:54;;;;;;;2.00;1.90;;;27.40;99.90;;;;;;4869488;29;20207;-63
2022/07/10 11:48:24;;;;;;;6.20;1.30;;;27.20;99.90;;;;;;4873523;29;20217;-63
2022/07/10 11:50:54;;;;;;;2.95;1.75;;;27.40;99.90;;;;;;4877380;29;20203;-63
2022/07/10 11:53:26;;;;;;;1.35;1.23;;;27.20;99.90;;;;;;4878498;29;20208;-63
2022/07/10 11:55:55;;;;;;;1.70;1.60;;;27.20;99.90;;;;;;4875887;29;20283;-63
2022/07/10 11:58:23;;;;;;;1.58;1.48;;;27.30;99.90;;;;;;4875539;29;20211;-63
2022/07/10 12:01:01;;;;;;;2.85;1.95;;;27.50;99.90;;;;;;4873856;29;20235;-63
2022/07/10 12:03:29;;;;;;;2.45;1.73;;;27.50;99.90;;;;;;4875549;29;20231;-63
2022/07/10 12:06:04;;;;;;;4.30;1.50;;;27.50;99.90;;;;;;4874020;29;20620;-63
2022/07/10 12:08:44;;;;;;;7.72;5.30;;;27.50;99.90;;;;;;4868278;29;20545;-63
2022/07/10 12:11:14;;;;;;;4.50;3.95;;;27.40;99.90;;;;;;4871345;29;20235;-63
2022/07/10 12:13:42;;;;;;;6.63;4.55;;;26.80;99.90;;;;;;4877178;29;20680;-63
2022/07/10 12:16:11;;;;;;;3.55;1.50;;;26.70;99.90;;;;;;4877170;29;20672;-63
2022/07/10 12:18:41;;;;;;;2.15;1.48;;;26.90;99.90;;;;;;4870454;29;20200;-63
2022/07/10 12:21:14;;;;;;;1.98;1.70;;;27.00;99.90;;;;;;4871480;29;20212;-63
2022/07/10 12:23:46;;;;;;;1.85;1.67;;;27.10;99.90;;;;;;4879476;29;20230;-63
2022/07/10 12:26:14;;;;;;;2.55;1.27;;;27.00;99.90;;;;;;4875797;29;20207;-63
2022/07/10 12:28:50;;;;;;;2.28;1.88;;;27.10;99.90;;;;;;4877536;29;20237;-63
2022/07/10 12:31:27;;;;;;;2.00;1.80;;;27.10;99.90;;;;;;4876655;29;20765;-63
2022/07/10 12:34:01;;;;;;;2.97;2.07;;;27.00;99.90;;;;;;4873848;29;20190;-63
2022/07/10 12:36:45;;;;;;;3.13;1.50;;;26.90;99.90;;;;;;4873678;29;20200;-63
2022/07/10 12:39:14;;;;;;;3.37;1.90;;;26.90;99.90;;;;;;4874760;29;20219;-63
2022/07/10 12:42:01;;;;;;;3.17;1.85;;;26.90;99.90;;;;;;4878500;29;20204;-63
2022/07/10 12:44:38;;;;;;;2.80;1.60;;;26.60;99.90;;;;;;4877581;29;20199;-63
2022/07/10 12:47:10;;;;;;;2.08;1.67;;;26.90;99.90;;;;;;4874041;29;20202;-63
2022/07/10 12:49:55;;;;;;;1.57;1.47;;;26.90;99.90;;;;;;4872173;29;20195;-63
2022/07/10 12:52:27;;;;;;;1.60;1.50;;;26.90;99.90;;;;;;4866540;29;20304;-63
2022/07/10 12:55:13;;;;;;;1.75;1.58;;;27.00;99.90;;;;;;4870163;29;20221;-63
2022/07/10 12:57:50;;;;;;;1.70;1.60;;;26.90;99.90;;;;;;4874318;29;20562;-63
2022/07/10 13:00:21;;;;;;;3.23;1.40;;;26.70;99.90;;;;;;4874959;29;20210;-63
2022/07/10 13:02:57;;;;;;;1.67;1.53;;;26.80;99.90;;;;;;4871824;29;20631;-63
2022/07/10 13:05:30;;;;;;;3.88;1.65;;;26.90;99.90;;;;;;4871706;29;20234;-63
2022/07/10 13:08:12;;;;;;;1.20;1.10;;;27.40;99.90;;;;;;4868890;29;20274;-63
2022/07/10 13:10:42;;;;;;;1.42;1.30;;;27.60;99.90;;;;;;4876987;29;20255;-63